Aviation Digital Data Service (ADDS)

Output produced by TAFs form (0359 UTC 23 September 2017)
found at http://www.aviationweather.gov/adds/tafs/
 
KDLH 222329Z 2300/2324 13007KT P6SM SCT120 WS020/19035KT 
     FM230700 20008KT P6SM BKN200 WS020/21035KT 
     FM231400 24007KT P6SM BKN110